Time;durP1;ratioP1;P1;durP2;ratioP2;P2;SDS_P1;SDS_P2;PMS_P1;PMS_P2;Temp;Humidity;BMP_temperature;BMP_pressure;BME280_temperature;BME280_humidity;BME280_pressure;Samples;Min_cycle;Max_cycle;Signal;HPM_P1;HPM_P2
2023/04/23 00:01:05;;;;;;;28.13;17.15;;;;;;;15.01;100.00;100164.75;4986135;28;20047;-90
2023/04/23 00:03:33;;;;;;;27.77;16.48;;;;;;;15.10;100.00;100160.06;4983429;28;20030;-92
2023/04/23 00:05:59;;;;;;;26.00;16.65;;;;;;;14.93;100.00;100155.06;4984431;28;20061;-89
2023/04/23 00:08:26;;;;;;;29.38;17.42;;;;;;;14.91;100.00;100157.09;4981464;28;20035;-93
2023/04/23 00:10:52;;;;;;;26.60;15.95;;;;;;;14.97;100.00;100145.66;4981653;28;20219;-95
2023/04/23 00:13:18;;;;;;;26.38;16.58;;;;;;;14.88;100.00;100148.69;4981583;28;20087;-93
2023/04/23 00:15:43;;;;;;;24.95;16.83;;;;;;;14.93;100.00;100151.56;4982046;28;20035;-90
2023/04/23 00:18:09;;;;;;;24.77;16.45;;;;;;;15.11;100.00;100157.19;4980673;28;20147;-92
2023/04/23 00:20:35;;;;;;;24.33;16.08;;;;;;;15.24;100.00;100156.41;4982913;28;20038;-91
2023/04/23 00:23:01;;;;;;;26.60;16.70;;;;;;;15.36;100.00;100157.47;4983293;28;20038;-92
2023/04/23 00:25:45;;;;;;;27.45;17.67;;;;;;;14.96;100.00;100154.66;4982757;28;20038;-92
2023/04/23 00:28:11;;;;;;;23.98;15.82;;;;;;;14.87;100.00;100152.38;4983697;28;20389;-89
2023/04/23 00:30:36;;;;;;;24.25;16.02;;;;;;;14.75;100.00;100149.44;4979273;28;20035;-93
2023/04/23 00:33:02;;;;;;;28.13;16.70;;;;;;;14.64;100.00;100146.50;4980092;28;20161;-89
2023/04/23 00:35:27;;;;;;;26.52;16.25;;;;;;;14.71;100.00;100147.38;4978411;28;20111;-91
2023/04/23 00:37:53;;;;;;;23.60;16.10;;;;;;;14.64;100.00;100136.66;4978845;28;20066;-91
2023/04/23 00:40:20;;;;;;;24.95;15.63;;;;;;;14.76;100.00;100139.59;4978651;28;20038;-90
2023/04/23 00:42:47;;;;;;;26.67;17.08;;;;;;;14.70;100.00;100137.72;4978905;28;20031;-90
2023/04/23 00:45:16;;;;;;;27.65;17.23;;;;;;;14.35;100.00;100134.25;4979370;28;20043;-88
2023/04/23 00:47:43;;;;;;;30.70;17.50;;;;;;;14.48;100.00;100140.47;4976827;28;20047;-90
2023/04/23 00:50:10;;;;;;;24.73;16.85;;;;;;;14.55;100.00;100137.84;4979248;28;20471;-86
2023/04/23 00:52:37;;;;;;;27.42;16.67;;;;;;;14.76;100.00;100139.59;4977982;28;20154;-90
2023/04/23 00:55:03;;;;;;;28.15;16.42;;;;;;;14.83;100.00;100146.59;4977966;28;20406;-91
2023/04/23 00:57:29;;;;;;;28.17;16.73;;;;;;;14.82;100.00;100136.13;4979034;28;20651;-92
2023/04/23 00:59:57;;;;;;;26.05;16.45;;;;;;;14.83;100.00;100125.25;4978359;28;20079;-93
2023/04/23 01:02:23;;;;;;;24.85;16.65;;;;;;;14.92;100.00;100133.91;4979493;28;20169;-88
2023/04/23 01:04:50;;;;;;;24.67;16.13;;;;;;;14.94;100.00;100132.72;4978899;28;20034;-91
2023/04/23 01:07:16;;;;;;;25.63;16.13;;;;;;;14.84;100.00;100128.75;4979352;28;20080;-86
2023/04/23 01:09:42;;;;;;;25.92;16.15;;;;;;;14.82;100.00;100131.63;4980252;28;20038;-92
2023/04/23 01:12:09;;;;;;;24.63;16.15;;;;;;;14.90;100.00;100131.44;4978590;28;20038;-87
2023/04/23 01:14:36;;;;;;;25.92;16.17;;;;;;;14.76;100.00;100129.75;4980562;28;20043;-93
2023/04/23 01:17:03;;;;;;;23.90;15.52;;;;;;;14.78;100.00;100130.34;4981829;28;20058;-90
2023/04/23 01:19:28;;;;;;;25.70;16.05;;;;;;;14.65;100.00;100132.16;4983031;28;20042;-92
2023/04/23 01:21:55;;;;;;;25.27;16.30;;;;;;;14.57;100.00;100129.66;4981495;28;20030;-87
2023/04/23 01:24:20;;;;;;;22.30;15.23;;;;;;;14.74;100.00;100126.47;4981818;28;20035;-91
2023/04/23 01:26:46;;;;;;;22.05;14.60;;;;;;;14.52;100.00;100116.91;4984513;28;20042;-91
2023/04/23 01:29:12;;;;;;;26.70;15.10;;;;;;;14.67;100.00;100120.28;4982922;28;20057;-86
2023/04/23 01:31:40;;;;;;;24.33;16.00;;;;;;;14.41;100.00;100109.47;4984362;28;20520;-90
2023/04/23 01:34:09;;;;;;;26.70;15.15;;;;;;;14.34;100.00;100116.59;4967591;28;20422;-91
2023/04/23 01:36:35;;;;;;;22.13;13.85;;;;;;;14.45;100.00;100110.69;4982908;28;20043;-88
2023/04/23 01:39:03;;;;;;;24.38;15.30;;;;;;;14.47;100.00;100116.69;4984457;28;20043;-91
2023/04/23 01:41:36;;;;;;;21.10;14.55;;;;;;;14.27;100.00;100113.03;4984905;28;20107;-87
2023/04/23 01:44:02;;;;;;;26.00;15.95;;;;;;;13.81;100.00;100113.53;4985344;28;20045;-91
2023/04/23 01:46:28;;;;;;;22.90;14.95;;;;;;;13.77;100.00;100116.78;4985045;28;20103;-84
2023/04/23 01:48:54;;;;;;;27.80;15.43;;;;;;;13.51;100.00;100117.38;4971207;28;20034;-93
2023/04/23 01:51:22;;;;;;;27.60;16.05;;;;;;;13.53;100.00;100110.00;4984665;28;20097;-89
2023/04/23 01:53:48;;;;;;;23.50;15.35;;;;;;;13.55;100.00;100113.31;4983353;28;20043;-87
2023/04/23 01:56:15;;;;;;;24.73;14.52;;;;;;;13.88;100.00;100113.59;4981123;28;20081;-91
2023/04/23 01:58:41;;;;;;;26.20;15.77;;;;;;;13.73;100.00;100123.50;4982769;28;20038;-91
2023/04/23 02:01:06;;;;;;;19.65;13.43;;;;;;;13.95;100.00;100117.13;4983418;28;20039;-91
2023/04/23 02:03:32;;;;;;;24.25;15.57;;;;;;;13.93;100.00;100125.31;4983456;28;20031;-91
2023/04/23 02:06:01;;;;;;;21.25;13.50;;;;;;;14.05;100.00;100119.47;4985473;28;20034;-93
2023/04/23 02:08:27;;;;;;;22.60;13.95;;;;;;;13.77;100.00;100120.28;4980127;28;20046;-88
2023/04/23 02:10:52;;;;;;;21.30;13.32;;;;;;;13.83;100.00;100116.81;4977773;28;20082;-93
2023/04/23 02:13:18;;;;;;;16.90;12.02;;;;;;;14.04;100.00;100112.47;4992344;28;20070;-86
2023/04/23 02:15:43;;;;;;;17.90;12.07;;;;;;;14.01;100.00;100112.88;4995248;28;20033;-87
2023/04/23 02:18:09;;;;;;;20.88;12.27;;;;;;;14.11;100.00;100113.34;4991850;28;20146;-90
2023/04/23 02:20:39;;;;;;;25.00;12.55;;;;;;;13.90;100.00;100122.22;4976860;28;20442;-87
2023/04/23 02:23:06;;;;;;;20.65;12.25;;;;;;;13.91;100.00;100123.88;4976621;28;20482;-92
2023/04/23 02:25:32;;;;;;;21.05;11.52;;;;;;;13.87;100.00;100122.59;4980645;28;20390;-88
2023/04/23 02:27:58;;;;;;;18.33;11.77;;;;;;;13.79;100.00;100125.38;4990556;28;20027;-87
2023/04/23 02:30:24;;;;;;;21.85;12.20;;;;;;;13.71;100.00;100122.88;4997327;28;20027;-90
2023/04/23 02:32:50;;;;;;;18.10;10.80;;;;;;;13.55;100.00;100123.97;4997449;28;20019;-89
2023/04/23 02:35:17;;;;;;;18.65;11.95;;;;;;;13.34;100.00;100132.78;4997861;28;20082;-89
2023/04/23 02:37:42;;;;;;;20.40;12.05;;;;;;;13.49;100.00;100119.38;4997835;28;20046;-88
2023/04/23 02:40:09;;;;;;;19.63;11.05;;;;;;;13.76;100.00;100123.09;4992900;28;20050;-86
2023/04/23 02:42:34;;;;;;;15.40;9.52;;;;;;;13.70;100.00;100115.91;4992584;28;20108;-86
2023/04/23 02:48:47;;;;;;;17.35;9.88;;;;;;;13.42;100.00;100118.53;4988892;28;20046;-90
2023/04/23 02:51:13;;;;;;;16.65;9.45;;;;;;;13.35;100.00;100120.28;4975637;28;20039;-93
2023/04/23 02:53:39;;;;;;;17.75;9.38;;;;;;;13.37;100.00;100111.09;4988239;28;20050;-87
2023/04/23 02:56:06;;;;;;;14.68;9.48;;;;;;;13.37;100.00;100110.28;4994421;28;20044;-87
2023/04/23 02:58:33;;;;;;;16.08;9.30;;;;;;;13.34;100.00;100116.81;4995070;28;20091;-86
2023/04/23 03:00:59;;;;;;;12.60;8.60;;;;;;;13.42;100.00;100118.53;4996898;28;20070;-85
2023/04/23 03:03:30;;;;;;;15.30;9.02;;;;;;;13.37;100.00;100119.09;4997094;28;20030;-84
2023/04/23 03:05:56;;;;;;;15.20;8.40;;;;;;;13.61;100.00;100117.88;4998324;28;20050;-88
2023/04/23 03:08:22;;;;;;;13.18;8.07;;;;;;;13.64;100.00;100114.84;4985502;28;20039;-92
2023/04/23 03:10:48;;;;;;;11.82;7.78;;;;;;;13.82;100.00;100120.50;4981504;28;20023;-87
2023/04/23 03:13:14;;;;;;;14.43;7.78;;;;;;;13.77;100.00;100122.09;4980106;28;20489;-91
2023/04/23 03:15:40;;;;;;;14.23;8.32;;;;;;;13.65;100.00;100115.66;4980139;28;20090;-89
2023/04/23 03:18:07;;;;;;;12.93;7.32;;;;;;;13.62;100.00;100111.50;4980153;28;20058;-92
2023/04/23 03:20:34;;;;;;;11.20;7.28;;;;;;;13.66;100.00;100115.44;4978372;28;20043;-92
2023/04/23 03:23:00;;;;;;;11.68;6.45;;;;;;;13.81;100.00;100118.03;4979428;28;20031;-90
2023/04/23 03:25:26;;;;;;;10.10;5.20;;;;;;;13.87;100.00;100118.09;4978110;28;20039;-89
2023/04/23 03:27:52;;;;;;;9.98;6.05;;;;;;;13.66;100.00;100112.78;4977449;28;20038;-90
2023/04/23 03:30:18;;;;;;;8.63;5.50;;;;;;;13.64;100.00;100109.50;4977490;28;20031;-89
2023/04/23 03:32:44;;;;;;;9.68;5.35;;;;;;;13.55;100.00;100105.34;4979513;28;20139;-91
2023/04/23 03:35:11;;;;;;;8.73;4.78;;;;;;;13.55;100.00;100113.31;4979744;28;20034;-89
2023/04/23 03:37:40;;;;;;;10.88;5.30;;;;;;;13.66;100.00;100112.78;4977503;28;20038;-86
2023/04/23 03:40:07;;;;;;;8.27;5.35;;;;;;;13.65;100.00;100107.66;4978332;28;20035;-90
2023/04/23 03:42:35;;;;;;;9.73;5.25;;;;;;;13.36;100.00;100113.94;4977761;28;20403;-86
2023/04/23 03:45:00;;;;;;;10.88;5.35;;;;;;;13.23;100.00;100119.94;4977228;28;20066;-91
2023/04/23 03:47:26;;;;;;;11.02;5.25;;;;;;;13.12;100.00;100116.97;4984056;28;20035;-90
2023/04/23 03:49:54;;;;;;;12.10;4.93;;;;;;;13.00;100.00;100119.25;4983209;28;20113;-88
2023/04/23 03:52:20;;;;;;;9.43;4.82;;;;;;;13.00;100.00;100121.09;4986873;28;20043;-88
2023/04/23 03:54:48;;;;;;;12.98;4.65;;;;;;;13.34;100.00;100115.97;4986728;28;20041;-87
2023/04/23 03:57:16;;;;;;;6.15;4.35;;;;;;;13.35;100.00;100122.97;4986234;28;20085;-89
2023/04/23 03:59:53;;;;;;;7.95;4.28;;;;;;;13.20;100.00;100119.50;4984710;28;20027;-90
2023/04/23 04:02:22;;;;;;;7.40;4.30;;;;;;;12.96;100.00;100117.97;4984818;28;20030;-89
2023/04/23 04:04:53;;;;;;;12.13;3.90;;;;;;;13.20;100.00;100124.81;4989297;28;20030;-88
2023/04/23 04:07:19;;;;;;;5.15;3.80;;;;;;;13.05;100.00;100118.72;4990572;28;20035;-87
2023/04/23 04:09:48;;;;;;;9.18;4.05;;;;;;;12.84;100.00;100130.94;4988741;28;20031;-89
2023/04/23 04:12:14;;;;;;;6.45;3.78;;;;;;;12.60;100.00;100123.28;4985328;28;20103;-87
2023/04/23 04:14:42;;;;;;;7.63;3.55;;;;;;;12.49;100.00;100125.59;4984855;28;20050;-87
2023/04/23 04:17:08;;;;;;;6.93;4.00;;;;;;;12.81;100.00;100120.69;4982977;28;20034;-88
2023/04/23 04:19:33;;;;;;;5.50;3.40;;;;;;;12.95;100.00;100117.19;4984365;28;20420;-92
2023/04/23 04:22:01;;;;;;;5.03;3.67;;;;;;;12.80;100.00;100119.03;4984359;28;20101;-83
2023/04/23 04:24:27;;;;;;;6.60;3.78;;;;;;;12.94;100.00;100120.84;4979230;28;20039;-85
2023/04/23 04:26:53;;;;;;;7.57;3.70;;;;;;;13.08;100.00;100115.66;4979221;28;20046;-89
2023/04/23 04:29:20;;;;;;;7.18;4.20;;;;;;;12.93;100.00;100119.19;4979415;28;20073;-90
2023/04/23 04:31:46;;;;;;;6.00;3.20;;;;;;;12.58;100.00;100112.00;4980125;28;20077;-89
2023/04/23 04:34:13;;;;;;;6.13;3.30;;;;;;;12.43;100.00;100113.84;4979105;28;20057;-85
2023/04/23 04:36:40;;;;;;;6.10;3.55;;;;;;;12.49;100.00;100114.94;4978340;28;20039;-91
2023/04/23 04:39:06;;;;;;;8.45;3.50;;;;;;;12.68;100.00;100125.00;4974836;28;20046;-90
2023/04/23 04:41:32;;;;;;;7.13;3.15;;;;;;;12.67;100.00;100134.00;4978155;28;20043;-82
2023/04/23 04:43:58;;;;;;;9.35;3.65;;;;;;;12.57;100.00;100133.44;4962721;28;20126;-87
2023/04/23 04:46:27;;;;;;;4.57;3.13;;;;;;;12.63;100.00;100130.03;4959082;28;20035;-90
2023/04/23 04:48:53;;;;;;;5.65;3.53;;;;;;;12.79;100.00;100129.88;4958626;28;20105;-82
2023/04/23 04:51:19;;;;;;;7.13;3.40;;;;;;;12.86;100.00;100136.91;4957122;28;20486;-88
2023/04/23 04:53:44;;;;;;;5.88;3.30;;;;;;;12.79;100.00;100128.00;4968947;28;20033;-88
2023/04/23 04:56:13;;;;;;;6.20;3.35;;;;;;;12.92;100.00;100125.53;4977498;28;20054;-87
2023/04/23 04:58:38;;;;;;;5.90;3.42;;;;;;;12.96;100.00;100128.63;4978047;28;20038;-87
2023/04/23 05:01:04;;;;;;;6.38;3.08;;;;;;;13.09;100.00;100131.47;4978611;28;20098;-93
2023/04/23 05:03:31;;;;;;;7.50;3.47;;;;;;;13.02;100.00;100127.91;4980360;28;20082;-91
2023/04/23 05:06:02;;;;;;;5.68;3.10;;;;;;;13.08;100.00;100131.63;4978938;28;20043;-88
2023/04/23 05:08:30;;;;;;;7.00;2.70;;;;;;;13.30;100.00;100136.00;4977736;28;20439;-90
2023/04/23 05:10:56;;;;;;;5.65;3.20;;;;;;;13.08;100.00;100136.94;4977138;28;20101;-89
2023/04/23 05:13:21;;;;;;;7.38;3.40;;;;;;;13.05;100.00;100135.50;4978851;28;20450;-85
2023/04/23 05:15:48;;;;;;;7.07;2.83;;;;;;;13.29;100.00;100140.47;4979497;28;20082;-86
2023/04/23 05:18:13;;;;;;;5.63;3.13;;;;;;;13.59;100.00;100141.19;4987549;28;20066;-82
2023/04/23 05:20:40;;;;;;;5.50;2.50;;;;;;;13.91;100.00;100140.69;4996442;28;20046;-84
2023/04/23 05:23:06;;;;;;;8.10;2.72;;;;;;;13.97;100.00;100142.56;4983255;28;20438;-85
2023/04/23 05:25:33;;;;;;;2.97;2.53;;;;;;;14.21;100.00;100140.47;4977943;28;20126;-87
2023/04/23 05:27:58;;;;;;;6.63;2.20;;;;;;;14.72;100.00;100138.31;4976130;28;20105;-89
2023/04/23 05:30:24;;;;;;;4.55;2.38;;;;;;;14.98;98.22;100139.25;4980035;28;20068;-84
2023/04/23 05:32:49;;;;;;;6.65;2.70;;;;;;;15.69;90.66;100147.69;4979106;28;20035;-85
2023/04/23 05:35:15;;;;;;;5.60;2.20;;;;;;;15.37;90.11;100151.94;4974620;28;20058;-89
2023/04/23 05:37:41;;;;;;;7.53;2.50;;;;;;;16.39;83.39;100143.53;4976605;28;20571;-89
2023/04/23 05:40:13;;;;;;;2.88;1.67;;;;;;;16.82;77.84;100152.72;4976795;28;20038;-86
2023/04/23 05:42:39;;;;;;;5.33;2.00;;;;;;;16.63;77.81;100148.25;4977212;28;20097;-84
2023/04/23 05:45:05;;;;;;;3.45;2.05;;;;;;;18.49;69.74;100161.09;4976037;28;20038;-88
2023/04/23 05:47:31;;;;;;;2.58;1.90;;;;;;;19.15;65.89;100171.09;4977102;28;20035;-90
2023/04/23 05:49:56;;;;;;;6.70;2.20;;;;;;;19.53;61.16;100171.63;4977364;28;20388;-85
2023/04/23 05:52:22;;;;;;;8.23;2.05;;;;;;;19.20;63.40;100169.34;4977023;28;20114;-88
2023/04/23 05:54:48;;;;;;;6.38;2.08;;;;;;;19.79;59.88;100175.78;4967144;28;20115;-90
2023/04/23 05:57:13;;;;;;;4.60;1.90;;;;;;;20.70;56.51;100180.66;4958910;28;20413;-90
2023/04/23 05:59:39;;;;;;;8.02;2.20;;;;;;;19.92;59.95;100180.97;4958694;29;20039;-87
2023/04/23 06:02:05;;;;;;;6.93;2.63;;;;;;;20.35;56.33;100186.09;4959928;28;20045;-89
2023/04/23 06:04:31;;;;;;;4.22;1.67;;;;;;;20.34;57.85;100184.44;4960774;29;20035;-93
2023/04/23 06:06:56;;;;;;;9.75;2.45;;;;;;;21.25;53.92;100187.25;4968531;29;20082;-85
2023/04/23 06:09:22;;;;;;;2.60;1.98;;;;;;;20.74;55.56;100184.53;4974034;28;20027;-87
2023/04/23 06:11:49;;;;;;;5.40;2.88;;;;;;;20.48;56.04;100180.47;4969507;28;20147;-89
2023/04/23 06:14:18;;;;;;;4.80;3.00;;;;;;;20.66;57.55;100176.81;4961265;29;20040;-90
2023/04/23 06:16:43;;;;;;;10.57;3.08;;;;;;;21.06;55.74;100188.44;4959852;29;20383;-90
2023/04/23 06:19:10;;;;;;;10.18;3.65;;;;;;;21.23;55.64;100181.28;4958618;28;20035;-88
2023/04/23 06:21:37;;;;;;;5.82;3.42;;;;;;;20.86;56.49;100177.25;4957560;29;20051;-91
2023/04/23 06:24:03;;;;;;;8.57;3.70;;;;;;;20.62;58.00;100181.84;4957566;28;20040;-88
2023/04/23 06:26:30;;;;;;;8.52;4.35;;;;;;;20.86;56.31;100183.47;4962102;28;20039;-90
2023/04/23 06:29:00;;;;;;;11.23;4.53;;;;;;;21.39;54.96;100182.38;4961465;29;20035;-91
2023/04/23 06:31:29;;;;;;;7.93;5.20;;;;;;;21.39;55.03;100182.38;4962882;29;20395;-90
2023/04/23 06:33:54;;;;;;;9.73;6.65;;;;;;;21.80;54.09;100183.94;4962721;28;20042;-85
2023/04/23 06:36:20;;;;;;;14.70;8.63;;;;;;;21.20;58.06;100184.47;4962805;28;20035;-91
2023/04/23 06:38:45;;;;;;;16.75;10.23;;;;;;;22.77;52.43;100190.63;4964967;28;20514;-88
2023/04/23 06:41:12;;;;;;;16.02;10.02;;;;;;;22.37;53.61;100184.66;4968041;28;20035;-88
2023/04/23 06:43:38;;;;;;;19.58;9.55;;;;;;;23.12;52.03;100193.00;4967284;29;20070;-89
2023/04/23 06:46:20;;;;;;;15.35;8.98;;;;;;;22.21;55.01;100185.44;4961907;29;20061;-93
2023/04/23 06:48:46;;;;;;;19.08;10.20;;;;;;;23.14;52.80;100182.72;4963649;29;20090;-88
2023/04/23 06:51:11;;;;;;;14.07;10.10;;;;;;;23.62;51.01;100190.06;4962167;29;20106;-88
2023/04/23 06:53:37;;;;;;;18.38;13.30;;;;;;;22.79;52.29;100185.81;4963051;28;20031;-87
2023/04/23 06:56:03;;;;;;;22.52;15.75;;;;;;;22.07;54.99;100185.78;4961064;28;20027;-91
2023/04/23 06:58:31;;;;;;;24.52;15.00;;;;;;;22.40;54.09;100181.44;4959321;28;20388;-91
2023/04/23 07:01:02;;;;;;;27.75;18.40;;;;;;;22.52;53.25;100188.38;4960019;28;20054;-86
2023/04/23 07:03:31;;;;;;;25.05;17.40;;;;;;;23.00;51.93;100179.59;4961680;28;20395;-89
2023/04/23 07:05:57;;;;;;;24.52;17.05;;;;;;;24.27;46.92;100194.44;4963423;28;20157;-84
2023/04/23 07:08:23;;;;;;;22.67;16.73;;;;;;;24.68;44.42;100190.94;4960705;28;20115;-85
2023/04/23 07:10:48;;;;;;;20.80;15.75;;;;;;;23.77;48.00;100182.09;4958498;28;20043;-85
2023/04/23 07:13:17;;;;;;;23.60;15.93;;;;;;;24.29;47.04;100195.03;4959311;28;20338;-84
2023/04/23 07:15:43;;;;;;;21.92;15.27;;;;;;;24.23;46.61;100190.66;4959256;28;20379;-88
2023/04/23 07:18:28;;;;;;;24.15;15.45;;;;;;;23.80;47.90;100186.97;4966132;28;20026;-90
2023/04/23 07:23:29;;;;;;;20.15;14.57;;;;;;;22.54;50.62;100182.72;4180228;26;20047;-86
2023/04/23 07:25:55;;;;;;;19.27;14.27;;;;;;;23.00;49.74;100165.28;4957006;28;20051;-91
2023/04/23 07:28:20;;;;;;;20.50;13.63;;;;;;;23.24;48.00;100173.91;4957932;28;20054;-90
2023/04/23 07:30:47;;;;;;;20.15;13.50;;;;;;;24.22;45.54;100172.75;4940703;28;20511;-86
2023/04/23 07:33:12;;;;;;;23.23;13.07;;;;;;;24.43;45.48;100182.63;4957893;28;20133;-88
2023/04/23 07:35:38;;;;;;;18.50;12.55;;;;;;;24.56;43.72;100174.88;4961448;28;20035;-86
2023/04/23 07:38:03;;;;;;;17.55;12.32;;;;;;;24.71;43.52;100176.84;4961766;28;20067;-86
2023/04/23 07:40:29;;;;;;;18.63;13.63;;;;;;;24.89;42.05;100170.22;4961825;28;20031;-86
2023/04/23 07:42:58;;;;;;;17.60;13.40;;;;;;;24.66;43.16;100176.81;4968642;28;20039;-85
2023/04/23 07:45:27;;;;;;;19.70;12.77;;;;;;;25.39;41.60;100175.00;4969397;28;20079;-83
2023/04/23 07:47:53;;;;;;;20.55;13.25;;;;;;;25.83;40.73;100176.16;4967702;28;20038;-82
2023/04/23 07:50:19;;;;;;;21.85;12.70;;;;;;;26.17;39.45;100169.16;4969276;28;20134;-86
2023/04/23 07:52:48;;;;;;;17.45;12.13;;;;;;;26.71;38.18;100171.22;4973762;28;20090;-86
2023/04/23 07:55:38;;;;;;;27.98;12.35;;;;;;;26.21;39.48;100172.13;4974086;28;20110;-93
2023/04/23 07:58:08;;;;;;;16.67;11.40;;;;;;;26.64;38.81;100166.06;4975924;28;20039;-91
2023/04/23 08:00:37;;;;;;;15.90;11.77;;;;;;;26.56;38.54;100163.09;4983958;28;20042;-92
2023/04/23 08:03:02;;;;;;;16.35;12.02;;;;;;;26.97;37.22;100170.06;4984741;28;20043;-88
2023/04/23 08:05:29;;;;;;;19.42;11.63;;;;;;;26.46;39.29;100169.38;4984831;28;20140;-90
2023/04/23 08:07:55;;;;;;;17.80;12.20;;;;;;;26.08;38.98;100165.28;4980212;28;20042;-91
2023/04/23 08:10:20;;;;;;;16.73;12.60;;;;;;;26.82;37.58;100172.84;4977612;28;20493;-88
2023/04/23 08:12:46;;;;;;;17.45;12.63;;;;;;;26.65;37.57;100162.25;4976162;28;20518;-87
2023/04/23 08:15:11;;;;;;;16.75;9.60;;;;;;;27.67;37.83;100170.81;4976171;28;20058;-86
2023/04/23 08:17:40;;;;;;;17.45;12.00;;;;;;;27.42;36.24;100163.56;4975427;28;20047;-86
2023/04/23 08:20:06;;;;;;;16.20;11.77;;;;;;;27.34;36.19;100169.63;4975808;28;20054;-87
2023/04/23 08:22:32;;;;;;;20.33;12.60;;;;;;;27.62;37.08;100168.09;4986741;28;20048;-84
2023/04/23 08:24:57;;;;;;;18.33;13.40;;;;;;;26.87;37.19;100170.09;4986616;28;20106;-88
2023/04/23 08:27:23;;;;;;;14.80;11.13;;;;;;;27.86;36.79;100155.41;4976469;28;20096;-85
2023/04/23 08:29:48;;;;;;;15.63;10.80;;;;;;;28.01;35.15;100163.44;4976310;28;20037;-85
2023/04/23 08:32:14;;;;;;;18.52;10.50;;;;;;;27.38;35.78;100154.34;4977183;28;20035;-89
2023/04/23 08:34:39;;;;;;;18.67;11.60;;;;;;;26.83;37.26;100163.59;4970771;28;20030;-87
2023/04/23 08:37:05;;;;;;;18.48;11.52;;;;;;;27.55;36.18;100151.25;4957058;28;20534;-87
2023/04/23 08:39:33;;;;;;;15.30;11.75;;;;;;;26.18;37.13;100156.38;4955292;28;20042;-89
2023/04/23 08:42:17;;;;;;;17.38;11.50;;;;;;;25.66;38.64;100153.88;4966448;28;20086;-88
2023/04/23 08:45:04;;;;;;;15.52;11.88;;;;;;;25.25;40.51;100152.97;4956222;28;20024;-87
2023/04/23 08:47:35;;;;;;;19.02;13.77;;;;;;;25.22;42.29;100155.41;5005404;23;20121;-89
2023/04/23 08:50:02;;;;;;;17.83;11.32;;;;;;;25.84;40.97;100155.25;4979006;28;21310;-85
2023/04/23 08:52:32;;;;;;;17.05;11.40;;;;;;;26.07;40.95;100155.53;4962878;28;20027;-85
2023/04/23 08:55:06;;;;;;;15.50;9.98;;;;;;;26.64;39.41;100165.25;4965222;28;20527;-84
2023/04/23 08:57:32;;;;;;;16.13;11.80;;;;;;;26.87;37.35;100159.22;4971353;28;20035;-85
2023/04/23 09:00:04;;;;;;;19.33;12.75;;;;;;;26.28;38.99;100155.56;4963757;28;20051;-82
2023/04/23 09:02:30;;;;;;;22.10;15.70;;;;;;;25.96;40.29;100158.50;4963034;28;20098;-89
2023/04/23 09:04:55;;;;;;;22.75;15.35;;;;;;;26.10;39.46;100160.44;4962693;28;20035;-80
2023/04/23 09:07:21;;;;;;;22.52;15.60;;;;;;;26.56;38.82;100153.03;4980302;28;20038;-85
2023/04/23 09:09:47;;;;;;;19.90;14.95;;;;;;;26.48;38.38;100150.09;4965903;28;20091;-84
2023/04/23 09:12:12;;;;;;;22.42;14.55;;;;;;;26.10;39.74;100160.44;4962849;28;20490;-86
2023/04/23 09:14:38;;;;;;;25.38;15.85;;;;;;;26.64;38.25;100154.38;4969450;28;20035;-88
2023/04/23 09:17:04;;;;;;;18.95;13.70;;;;;;;27.13;37.22;100146.31;4968436;28;20047;-86
2023/04/23 09:19:30;;;;;;;22.95;14.75;;;;;;;26.69;37.96;100146.19;4963819;28;20031;-87
2023/04/23 09:21:57;;;;;;;24.23;17.10;;;;;;;26.68;38.76;100144.59;4968566;28;20038;-87
2023/04/23 09:24:27;;;;;;;21.20;15.60;;;;;;;26.71;39.18;100138.59;4969606;28;20354;-89
2023/04/23 09:26:53;;;;;;;20.30;15.40;;;;;;;26.80;39.60;100136.91;4968241;28;20027;-87
2023/04/23 09:29:22;;;;;;;23.85;17.20;;;;;;;26.57;41.38;100126.69;4962146;28;20446;-87
2023/04/23 09:31:54;;;;;;;25.88;19.02;;;;;;;26.27;41.15;100132.19;4983755;28;20035;-87
2023/04/23 09:34:21;;;;;;;25.90;18.15;;;;;;;26.76;39.79;100124.97;4969119;28;20094;-86
2023/04/23 09:36:54;;;;;;;25.77;18.75;;;;;;;25.95;41.83;100122.41;4972646;28;20046;-87
2023/04/23 09:39:23;;;;;;;26.08;17.85;;;;;;;26.44;39.89;100121.81;4969960;28;20062;-89
2023/04/23 09:41:52;;;;;;;27.40;17.98;;;;;;;26.05;40.91;100127.03;4975497;28;20097;-89
2023/04/23 09:44:21;;;;;;;21.40;16.50;;;;;;;25.75;42.33;100121.59;4991812;28;20097;-89
2023/04/23 09:46:47;;;;;;;22.48;15.88;;;;;;;25.92;41.19;100117.50;4991249;28;20035;-88
2023/04/23 09:49:15;;;;;;;21.98;16.77;;;;;;;25.78;41.64;100121.88;4989284;28;20122;-85
2023/04/23 09:51:45;;;;;;;26.05;16.60;;;;;;;26.06;40.71;100115.88;4988267;28;20062;-85
2023/04/23 09:54:22;;;;;;;20.48;15.68;;;;;;;26.62;40.90;100113.03;4988453;28;20035;-88
2023/04/23 09:57:00;;;;;;;29.20;17.73;;;;;;;26.99;39.78;100108.03;4988525;28;20035;-87
2023/04/23 09:59:30;;;;;;;25.95;17.63;;;;;;;26.52;40.38;100113.09;4983072;28;20038;-88
2023/04/23 10:01:56;;;;;;;26.77;17.60;;;;;;;26.36;40.22;100116.94;4998735;28;20057;-87
2023/04/23 10:04:24;;;;;;;23.40;15.40;;;;;;;26.31;39.90;100116.97;5001726;28;20011;-88
2023/04/23 10:06:57;;;;;;;20.85;14.60;;;;;;;26.32;39.33;100119.38;4984351;28;20031;-84
2023/04/23 10:09:25;;;;;;;20.63;14.20;;;;;;;26.97;37.98;100115.66;4996942;28;20022;-87
2023/04/23 10:11:51;;;;;;;19.85;12.32;;;;;;;27.91;36.56;100124.56;4996507;28;20138;-88
2023/04/23 10:14:21;;;;;;;17.70;12.95;;;;;;;27.17;38.54;100109.31;4983409;28;20041;-88
2023/04/23 10:16:55;;;;;;;20.52;11.93;;;;;;;27.71;38.48;100114.66;4984226;28;20509;-88
2023/04/23 10:19:22;;;;;;;22.05;14.68;;;;;;;27.30;36.07;100114.13;4983712;28;20043;-86
2023/04/23 10:21:59;;;;;;;15.90;10.98;;;;;;;27.02;37.45;100112.91;4982161;28;20057;-82
2023/04/23 10:24:29;;;;;;;17.98;13.35;;;;;;;26.69;38.18;100108.13;4979356;28;20045;-88
2023/04/23 10:26:59;;;;;;;22.92;13.38;;;;;;;27.08;37.45;100106.34;4977578;28;20045;-85
2023/04/23 10:29:30;;;;;;;27.30;18.55;;;;;;;26.89;39.24;100094.47;4978046;28;20117;-87
2023/04/23 10:31:59;;;;;;;36.58;21.58;;;;;;;27.22;39.64;100101.91;4980125;28;20031;-88
2023/04/23 10:34:27;;;;;;;20.77;15.05;;;;;;;27.82;37.10;100099.03;4978807;28;20484;-86
2023/04/23 10:36:55;;;;;;;24.27;17.42;;;;;;;27.79;35.81;100095.00;4978050;28;20041;-85
2023/04/23 10:39:23;;;;;;;16.70;13.20;;;;;;;27.06;38.05;100092.22;4977035;28;20478;-87
2023/04/23 10:41:51;;;;;;;20.45;12.98;;;;;;;28.01;37.90;100097.22;4978269;28;20034;-83
2023/04/23 10:44:20;;;;;;;24.33;12.90;;;;;;;28.23;36.94;100090.25;4980505;28;20049;-87
2023/04/23 10:46:57;;;;;;;17.77;13.88;;;;;;;28.63;36.04;100090.88;4978494;28;20497;-88
2023/04/23 10:49:23;;;;;;;21.63;12.20;;;;;;;28.86;36.75;100076.44;4978716;28;20517;-85
2023/04/23 10:52:07;;;;;;;23.63;15.73;;;;;;;28.39;37.23;100084.59;4980292;28;20035;-89
2023/04/23 10:54:35;;;;;;;28.60;17.33;;;;;;;27.91;38.28;100065.44;4978651;28;20059;-85
2023/04/23 10:57:03;;;;;;;29.50;19.13;;;;;;;27.69;38.13;100070.56;4979918;28;20046;-90
2023/04/23 10:59:31;;;;;;;23.08;15.80;;;;;;;27.43;38.08;100052.78;4977708;28;20042;-84
2023/04/23 11:02:01;;;;;;;20.75;15.43;;;;;;;27.32;38.29;100051.22;4977704;28;20043;-85
2023/04/23 11:04:28;;;;;;;25.02;18.67;;;;;;;26.81;39.62;100057.00;4973167;28;20050;-84
2023/04/23 11:06:57;;;;;;;22.77;14.60;;;;;;;26.84;39.87;100050.19;4976008;28;20034;-87
2023/04/23 11:09:31;;;;;;;24.00;15.75;;;;;;;26.67;39.39;100045.09;4958233;29;20516;-88
2023/04/23 11:11:58;;;;;;;24.92;15.27;;;;;;;25.76;41.68;100049.91;4979385;28;20049;-86
2023/04/23 11:14:40;;;;;;;32.67;19.17;;;;;;;26.20;41.44;100040.91;4977222;28;20045;-87
2023/04/23 11:17:05;;;;;;;18.20;12.98;;;;;;;27.28;40.63;100047.47;4977617;28;20027;-84